TRS weather

Trieste–Friuli Venezia Giulia Airport
Trieste, Friuli-Venezia Giulia, Italy

Public forecast

Using degrees Celsius for public forecast. Weather courtesy of forecast.io.

METAR (pilot weather report)

Retrieved 2019/05/21 14:20 UTC (11 minutes ago):

LIPQ 211420Z 14005KT 9999 FEW015 BKN040 17/14 Q1011

TAF (pilot weather forecast)

Retrieved 2019/05/21 12:21 UTC (2 hours ago):

TAF LIPQ 211100Z 2112/2212 16010KT 9999 SCT010 BKN030 PROB40 TEMPO 2112/2118 SHRA BECMG 2216/2218 VRB05KT BECMG 2208/2210 17010KT